メインページ
METAR-TAF:

METAR-TAF

空港 :

エルシリオ・ルス国際空港

フロリアノーポリス, サンタカタリーナ州, ブラジル

緯度: 27-40S, 経度: 048-33W, 海抜: 5m

現時点の気象観測

当レポートは8分前の21:00(UTC)に作成
の風 11kt
気温 26°C
湿度 79%
気圧 1015 hPa
視程10km以上
高度3000ftの雲はほとんどない

METAR: SBFL 112100Z 36011KT 9999 FEW030 26/22 Q1015

時間: 19:08 (21:08 UTC)

予報

当レポートは5時間53分前の15:15(UTC)に作成
予報は11日の 18時(UTC)から 12日の 18時(UTC)まで有効
の風 10kt
視程10km以上
高度4000ftの雲はほとんどない
11日の 20時(UTC)から 11日の 22時(UTC)まで徐々に
の風 5kt
視程10km以上
1,500メートル以下は雲なし、積乱雲なし
12日の 11時(UTC)から 12日の 13時(UTC)まで徐々に
の風 11kt
視程10km以上
高度3500ftの雲はほとんどない

TAF: SBFL 111515Z 1118/1218 01010KT 9999 FEW040 TX31/1118Z TN22/1208Z BECMG 1120/1122 36005KT CAVOK BECMG 1211/1213 01011KT 9999 FEW035 RMK PDW

4,000以上の空港の気象観測と天気予報(METAR報とTAF報)

利用可能な観測所は地図上に黄色い丸と赤い丸で示す。

丸の上にカーソルを重ねると観測所名を参照できる。

次にクリックすると気象観測と天気予報を参照できる。

マップの切り替え:黒色「×」印の緑ボタンをクリックして拡大、「-」印の緑ボタンをクリックして縮小、緑色の三角印をクリックして隣りの地図に切り替え


METAR-TAF: